createdAt,value
2019-06-01T00:01:18.024Z,16.80
2019-06-01T00:03:49.307Z,16.70
2019-06-01T00:06:18.851Z,16.70
2019-06-01T00:08:49.341Z,16.70
2019-06-01T00:11:18.961Z,16.70
2019-06-01T00:13:50.600Z,16.70
2019-06-01T00:16:20.322Z,16.70
2019-06-01T00:18:50.362Z,16.70
2019-06-01T00:21:19.996Z,16.70
2019-06-01T00:23:49.536Z,16.70
2019-06-01T00:26:19.261Z,16.60
2019-06-01T00:28:50.012Z,16.60
2019-06-01T00:31:18.887Z,16.60
2019-06-01T00:33:49.576Z,16.50
2019-06-01T00:36:18.397Z,16.50
2019-06-01T00:38:47.936Z,16.40
2019-06-01T00:41:17.967Z,16.40
2019-06-01T00:43:48.719Z,16.50
2019-06-01T00:46:17.645Z,16.50
2019-06-01T00:48:47.825Z,16.40
2019-06-01T00:51:18.525Z,16.30
2019-06-01T00:53:49.413Z,16.30
2019-06-01T00:56:19.710Z,16.40
2019-06-01T00:58:49.807Z,16.30
2019-06-01T01:01:19.482Z,16.20
2019-06-01T01:03:50.104Z,16.10
2019-06-01T01:06:19.745Z,16.10
2019-06-01T01:08:49.305Z,16.10
2019-06-01T01:11:19.878Z,16.10
2019-06-01T01:13:49.436Z,16.10
2019-06-01T01:16:19.015Z,16.00
2019-06-01T01:18:49.651Z,16.00
2019-06-01T01:21:19.310Z,15.90
2019-06-01T01:23:50.224Z,16.00
2019-06-01T01:26:20.030Z,16.00
2019-06-01T01:28:50.704Z,16.00
2019-06-01T01:31:20.302Z,16.10
2019-06-01T01:33:49.872Z,16.00
2019-06-01T01:36:19.558Z,15.90
2019-06-01T01:38:50.480Z,15.80
2019-06-01T01:41:20.059Z,15.70
2019-06-01T01:43:52.754Z,15.80
2019-06-01T01:46:22.436Z,15.60
2019-06-01T01:48:52.129Z,15.60
2019-06-01T01:51:21.668Z,15.60
2019-06-01T01:53:52.850Z,15.70
2019-06-01T01:56:22.646Z,15.70
2019-06-01T01:59:16.218Z,15.70
2019-06-01T02:01:45.787Z,15.70
2019-06-01T02:04:15.388Z,15.60
2019-06-01T02:06:45.904Z,15.60
2019-06-01T02:09:15.623Z,15.50
2019-06-01T02:11:45.248Z,15.50
2019-06-01T02:14:14.829Z,15.50
2019-06-01T02:16:44.428Z,15.50
2019-06-01T02:19:13.973Z,15.50
2019-06-01T02:22:19.557Z,15.40
2019-06-01T02:24:49.227Z,15.40
2019-06-01T02:27:18.917Z,15.30
2019-06-01T02:29:48.454Z,15.30
2019-06-01T02:32:19.120Z,15.30
2019-06-01T02:34:48.724Z,15.30
2019-06-01T02:37:18.304Z,15.20
2019-06-01T02:39:47.873Z,15.20
2019-06-01T02:42:17.448Z,15.30
2019-06-01T02:44:47.001Z,15.20
2019-06-01T02:47:16.550Z,15.10
2019-06-01T02:49:46.122Z,15.10
2019-06-01T02:52:15.687Z,15.10
2019-06-01T02:54:45.298Z,15.10
2019-06-01T02:57:15.871Z,15.10
2019-06-01T02:59:46.730Z,15.00
2019-06-01T03:02:15.522Z,14.90
2019-06-01T03:04:45.005Z,14.90
2019-06-01T03:07:14.650Z,15.00
2019-06-01T03:09:44.231Z,14.90
2019-06-01T03:12:13.776Z,15.00
2019-06-01T03:14:43.497Z,14.90
2019-06-01T03:17:14.846Z,14.90
2019-06-01T03:19:44.419Z,14.90
2019-06-01T03:22:15.562Z,15.00
2019-06-01T03:24:45.658Z,15.00
2019-06-01T03:27:15.390Z,15.00
2019-06-01T03:29:50.446Z,15.00
2019-06-01T03:32:35.177Z,15.00
2019-06-01T03:34:51.269Z,15.00
2019-06-01T03:37:21.005Z,15.00
2019-06-01T03:39:50.765Z,14.90
2019-06-01T03:42:21.299Z,15.00
2019-06-01T03:44:50.979Z,15.00
2019-06-01T03:47:20.573Z,14.90
2019-06-01T03:49:50.208Z,14.90
2019-06-01T03:52:20.767Z,14.90
2019-06-01T03:54:50.403Z,15.00
2019-06-01T03:57:19.963Z,15.10
2019-06-01T03:59:49.551Z,15.10
2019-06-01T04:02:32.434Z,15.10
2019-06-01T04:04:50.527Z,15.10
2019-06-01T04:07:20.084Z,15.10
2019-06-01T04:09:49.743Z,15.00
2019-06-01T04:12:19.473Z,14.90
2019-06-01T04:14:49.329Z,14.90
2019-06-01T04:17:18.920Z,14.80
2019-06-01T04:19:48.578Z,14.90
2019-06-01T04:22:18.115Z,14.80
2019-06-01T04:24:47.761Z,14.90
2019-06-01T04:27:17.304Z,14.90
2019-06-01T04:29:46.927Z,14.90
2019-06-01T04:32:16.763Z,14.90
2019-06-01T04:34:46.559Z,14.90
2019-06-01T04:37:16.143Z,15.00
2019-06-01T04:39:46.722Z,15.20
2019-06-01T04:42:16.357Z,15.10
2019-06-01T04:44:47.840Z,15.20
2019-06-01T04:47:17.449Z,15.30
2019-06-01T04:49:46.991Z,15.20
2019-06-01T04:52:16.575Z,15.20
2019-06-01T04:54:46.152Z,15.30
2019-06-01T04:57:15.769Z,15.30
2019-06-01T04:59:45.531Z,15.30
2019-06-01T05:02:15.293Z,15.40
2019-06-01T05:04:44.877Z,15.40
2019-06-01T05:07:15.513Z,15.50
2019-06-01T05:09:45.239Z,15.60
2019-06-01T05:12:15.545Z,15.60
2019-06-01T05:14:45.299Z,15.60
2019-06-01T05:17:16.748Z,15.70
2019-06-01T05:19:46.452Z,15.70
2019-06-01T05:22:16.757Z,15.70
2019-06-01T05:24:46.344Z,15.70
2019-06-01T05:27:17.220Z,15.70
2019-06-01T05:29:47.025Z,15.70
2019-06-01T05:32:17.080Z,15.70
2019-06-01T05:34:46.697Z,15.70
2019-06-01T05:37:32.856Z,15.80
2019-06-01T05:40:02.431Z,15.90
2019-06-01T05:42:31.985Z,15.90
2019-06-01T05:45:03.067Z,16.00
2019-06-01T05:47:33.307Z,16.10
2019-06-01T05:50:03.114Z,16.10
2019-06-01T05:52:32.895Z,16.10
2019-06-01T05:55:03.567Z,16.10
2019-06-01T05:57:33.352Z,16.20
2019-06-01T06:00:02.961Z,16.20
2019-06-01T06:02:32.899Z,16.30
2019-06-01T06:05:02.454Z,16.40
2019-06-01T06:07:51.854Z,16.40
2019-06-01T06:10:22.193Z,16.50
2019-06-01T06:12:51.929Z,16.60
2019-06-01T06:15:22.501Z,16.70
2019-06-01T06:17:52.511Z,16.80
2019-06-01T06:20:22.459Z,16.80
2019-06-01T06:22:52.861Z,16.90
2019-06-01T06:25:22.428Z,17.00
2019-06-01T06:27:51.987Z,17.00
2019-06-01T06:30:21.575Z,17.10
2019-06-01T06:32:51.095Z,17.40
2019-06-01T06:35:21.636Z,17.60
2019-06-01T06:37:51.192Z,17.80
2019-06-01T06:40:20.731Z,17.90
2019-06-01T06:42:50.291Z,18.10
2019-06-01T06:45:20.764Z,18.30
2019-06-01T06:47:50.533Z,18.50
2019-06-01T06:50:25.899Z,18.60
2019-06-01T06:52:55.584Z,18.70
2019-06-01T06:55:26.146Z,18.70
2019-06-01T06:57:56.020Z,18.80
2019-06-01T07:00:27.664Z,18.80
2019-06-01T07:02:57.375Z,18.80
2019-06-01T07:05:31.379Z,18.90
2019-06-01T07:08:00.497Z,19.10
2019-06-01T07:10:30.177Z,19.10
2019-06-01T07:12:59.727Z,19.20
2019-06-01T07:15:29.298Z,19.20
2019-06-01T07:18:05.695Z,19.20
2019-06-01T07:20:36.351Z,19.20
2019-06-01T07:23:06.049Z,19.20
2019-06-01T07:25:35.582Z,19.30
2019-06-01T07:28:05.462Z,19.30
2019-06-01T07:30:49.667Z,19.40
2019-06-01T07:33:07.611Z,19.40
2019-06-01T07:35:37.335Z,19.40
2019-06-01T07:38:06.924Z,19.50
2019-06-01T07:40:36.498Z,19.50
2019-06-01T07:43:06.051Z,19.50
2019-06-01T07:45:35.604Z,19.50
2019-06-01T07:48:06.135Z,19.60
2019-06-01T07:50:35.871Z,19.60
2019-06-01T07:53:05.403Z,19.70
2019-06-01T07:55:35.986Z,19.80
2019-06-01T07:58:05.522Z,19.80
2019-06-01T08:00:35.132Z,19.90
2019-06-01T08:03:05.667Z,19.90
2019-06-01T08:05:35.309Z,20.00
2019-06-01T08:08:04.869Z,20.00
2019-06-01T08:10:35.229Z,20.10
2019-06-01T08:13:04.893Z,20.10
2019-06-01T08:15:34.543Z,20.20
2019-06-01T08:18:04.223Z,20.20
2019-06-01T08:20:35.241Z,20.30
2019-06-01T08:23:05.170Z,20.30
2019-06-01T08:25:34.823Z,20.40
2019-06-01T08:28:04.515Z,20.50
2019-06-01T08:30:35.671Z,20.50
2019-06-01T08:33:05.403Z,20.50
2019-06-01T08:35:35.887Z,20.50
2019-06-01T08:38:06.209Z,20.60
2019-06-01T08:40:36.196Z,20.60
2019-06-01T08:43:05.851Z,20.60
2019-06-01T08:45:37.410Z,20.70
2019-06-01T08:48:06.767Z,20.80
2019-06-01T08:50:36.660Z,20.80
2019-06-01T08:53:06.316Z,20.80
2019-06-01T08:55:35.960Z,20.90
2019-06-01T08:58:05.542Z,20.90
2019-06-01T09:00:36.367Z,21.00
2019-06-01T09:03:05.908Z,21.10
2019-06-01T09:05:35.527Z,21.20
2019-06-01T09:08:05.196Z,21.30
2019-06-01T09:10:35.544Z,21.40
2019-06-01T09:13:15.702Z,21.50
2019-06-01T09:15:45.367Z,21.60
2019-06-01T09:18:16.085Z,21.70
2019-06-01T09:20:45.224Z,21.80
2019-06-01T09:23:14.691Z,21.90
2019-06-01T09:25:44.249Z,21.90
2019-06-01T09:28:13.791Z,22.00
2019-06-01T09:30:43.464Z,22.00
2019-06-01T09:33:13.175Z,22.10
2019-06-01T09:35:54.324Z,22.10
2019-06-01T09:38:14.136Z,22.20
2019-06-01T09:40:43.802Z,22.20
2019-06-01T09:43:13.444Z,22.20
2019-06-01T09:45:44.824Z,22.30
2019-06-01T09:48:14.516Z,22.40
2019-06-01T09:50:44.172Z,22.40
2019-06-01T09:53:13.898Z,22.50
2019-06-01T09:55:43.553Z,22.50
2019-06-01T09:58:13.220Z,22.50
2019-06-01T10:00:43.938Z,22.60
2019-06-01T10:03:13.718Z,22.60
2019-06-01T10:06:00.340Z,22.70
2019-06-01T10:08:16.674Z,22.60
2019-06-01T10:10:46.363Z,22.70
2019-06-01T10:13:16.044Z,22.80
2019-06-01T10:15:45.864Z,22.80
2019-06-01T10:18:15.547Z,22.90
2019-06-01T10:20:45.116Z,22.90
2019-06-01T10:23:15.898Z,23.00
2019-06-01T10:25:45.812Z,23.00
2019-06-01T10:28:16.591Z,23.00
2019-06-01T10:30:46.396Z,23.10
2019-06-01T10:33:16.117Z,23.10
2019-06-01T10:35:46.635Z,23.20
2019-06-01T10:38:16.407Z,23.20
2019-06-01T10:40:46.629Z,23.30
2019-06-01T10:43:16.278Z,23.30
2019-06-01T10:45:46.835Z,23.40
2019-06-01T10:48:16.778Z,23.40
2019-06-01T10:50:46.624Z,23.40
2019-06-01T10:53:17.045Z,23.50
2019-06-01T10:55:47.440Z,23.50
2019-06-01T10:58:17.316Z,23.60
2019-06-01T11:00:52.109Z,23.60
2019-06-01T11:03:21.861Z,23.70
2019-06-01T11:05:51.624Z,23.70
2019-06-01T11:08:21.241Z,23.80
2019-06-01T11:10:50.894Z,23.90
2019-06-01T11:13:20.715Z,24.00
2019-06-01T11:15:50.417Z,24.10
2019-06-01T11:18:20.090Z,24.10
2019-06-01T11:20:49.719Z,24.20
2019-06-01T11:23:20.700Z,24.30
2019-06-01T11:25:50.361Z,24.30
2019-06-01T11:28:19.974Z,24.40
2019-06-01T11:30:49.672Z,24.50
2019-06-01T11:33:19.290Z,24.70
2019-06-01T11:35:48.955Z,24.70
2019-06-01T11:38:25.429Z,24.80
2019-06-01T11:40:55.236Z,24.90
2019-06-01T11:43:24.800Z,25.00
2019-06-01T11:45:55.517Z,25.10
2019-06-01T11:48:26.235Z,25.10
2019-06-01T11:50:56.149Z,25.20
2019-06-01T11:53:25.791Z,25.30
2019-06-01T11:55:55.693Z,25.30
2019-06-01T11:58:25.543Z,25.40
2019-06-01T12:01:13.610Z,25.50
2019-06-01T12:03:45.976Z,25.50
2019-06-01T12:06:15.778Z,25.50
2019-06-01T12:08:47.291Z,25.70
2019-06-01T12:11:23.869Z,25.70
2019-06-01T12:13:53.659Z,25.90
2019-06-01T12:16:25.509Z,26.00
2019-06-01T12:18:55.799Z,26.20
2019-06-01T12:21:25.816Z,26.20
2019-06-01T12:23:55.717Z,26.20
2019-06-01T12:26:25.441Z,26.10
2019-06-01T12:28:55.354Z,26.00
2019-06-01T12:31:25.371Z,26.10
2019-06-01T12:33:57.989Z,26.30
2019-06-01T12:36:29.305Z,26.50
2019-06-01T12:38:59.448Z,26.60
2019-06-01T12:41:39.702Z,26.80
2019-06-01T12:44:13.295Z,26.90
2019-06-01T12:46:43.830Z,27.00
2019-06-01T12:49:13.874Z,27.20
2019-06-01T12:51:44.508Z,27.30
2019-06-01T12:54:14.251Z,27.30
2019-06-01T12:56:44.753Z,27.30
2019-06-01T12:59:14.635Z,27.40
2019-06-01T13:01:45.393Z,27.50
2019-06-01T13:04:16.777Z,27.60
2019-06-01T13:06:53.787Z,27.70
2019-06-01T13:09:24.070Z,27.80
2019-06-01T13:11:53.717Z,27.90
2019-06-01T13:14:23.696Z,28.00
2019-06-01T13:17:04.278Z,28.00
2019-06-01T13:19:26.474Z,28.20
2019-06-01T13:22:02.280Z,28.20
2019-06-01T13:24:33.217Z,28.30
2019-06-01T13:27:02.846Z,28.40
2019-06-01T13:29:32.807Z,28.50
2019-06-01T13:32:02.848Z,28.70
2019-06-01T13:34:44.660Z,28.80
2019-06-01T13:37:22.488Z,28.90
2019-06-01T13:39:58.138Z,29.00
2019-06-01T13:42:26.207Z,29.10
2019-06-01T13:44:56.181Z,29.10
2019-06-01T13:47:27.246Z,29.10
2019-06-01T13:49:58.251Z,29.10
2019-06-01T13:52:27.938Z,29.10
2019-06-01T13:54:58.551Z,29.20
2019-06-01T13:57:28.281Z,29.30
2019-06-01T13:59:57.892Z,29.30
2019-06-01T14:02:27.843Z,29.40
2019-06-01T14:04:57.473Z,29.50
2019-06-01T14:07:28.191Z,29.60
2019-06-01T14:09:58.186Z,29.70
2019-06-01T14:12:28.509Z,29.60
2019-06-01T14:15:04.467Z,29.40
2019-06-01T14:17:34.342Z,29.40
2019-06-01T14:20:04.359Z,29.50
2019-06-01T14:22:35.618Z,29.60
2019-06-01T14:25:13.599Z,29.70
2019-06-01T14:27:38.186Z,29.70
2019-06-01T14:30:08.353Z,29.80
2019-06-01T14:32:39.064Z,29.90
2019-06-01T14:35:08.733Z,30.00
2019-06-01T14:37:38.363Z,30.10
2019-06-01T14:40:08.146Z,30.10
2019-06-01T14:42:37.711Z,30.10
2019-06-01T14:45:07.518Z,30.20
2019-06-01T14:47:37.922Z,30.10
2019-06-01T14:50:17.845Z,29.90
2019-06-01T14:52:49.576Z,29.70
2019-06-01T14:58:38.656Z,29.20
2019-06-01T15:01:08.276Z,28.80
2019-06-01T15:03:48.076Z,28.80
2019-06-01T15:06:20.738Z,28.80
2019-06-01T15:09:13.157Z,28.90
2019-06-01T15:11:22.252Z,29.10
2019-06-01T15:13:52.915Z,29.30
2019-06-01T15:16:22.728Z,29.40
2019-06-01T15:18:54.073Z,29.40
2019-06-01T15:21:23.682Z,29.50
2019-06-01T15:23:53.875Z,29.60
2019-06-01T15:26:23.548Z,29.60
2019-06-01T15:28:54.622Z,29.70
2019-06-01T15:31:25.424Z,29.70
2019-06-01T15:33:55.243Z,29.70
2019-06-01T15:36:25.024Z,29.80
2019-06-01T15:38:57.875Z,29.70
2019-06-01T15:41:27.796Z,29.60
2019-06-01T15:43:57.588Z,29.60
2019-06-01T15:46:28.492Z,29.70
2019-06-01T15:49:00.130Z,29.60
2019-06-01T15:51:29.900Z,29.60
2019-06-01T15:54:01.505Z,29.60
2019-06-01T15:56:31.185Z,29.60
2019-06-01T16:02:23.709Z,29.40
2019-06-01T16:04:55.572Z,29.40
2019-06-01T16:07:25.172Z,29.40
2019-06-01T16:09:55.445Z,29.30
2019-06-01T16:12:24.507Z,29.30
2019-06-01T16:14:53.987Z,29.30
2019-06-01T16:17:23.590Z,29.30
2019-06-01T16:19:53.905Z,29.30
2019-06-01T16:22:24.761Z,29.30
2019-06-01T16:24:58.138Z,29.20
2019-06-01T16:27:30.688Z,29.20
2019-06-01T16:30:01.978Z,29.20
2019-06-01T16:32:31.807Z,29.20
2019-06-01T16:35:01.458Z,29.20
2019-06-01T16:37:32.013Z,29.10
2019-06-01T16:40:07.358Z,29.10
2019-06-01T16:42:33.367Z,29.10
2019-06-01T16:45:03.636Z,29.10
2019-06-01T16:47:32.837Z,29.10
2019-06-01T16:50:03.880Z,29.10
2019-06-01T16:52:33.871Z,29.00
2019-06-01T16:55:05.021Z,29.00
2019-06-01T16:57:35.445Z,29.00
2019-06-01T17:00:07.196Z,29.00
2019-06-01T17:06:47.387Z,29.10
2019-06-01T17:09:29.165Z,29.20
2019-06-01T17:12:00.804Z,29.20
2019-06-01T17:14:35.196Z,29.20
2019-06-01T17:17:07.591Z,29.20
2019-06-01T17:19:40.370Z,29.30
2019-06-01T17:22:10.139Z,29.30
2019-06-01T17:24:39.851Z,29.30
2019-06-01T17:27:09.391Z,29.40
2019-06-01T17:29:41.298Z,29.40
2019-06-01T17:32:23.100Z,29.40
2019-06-01T17:34:42.444Z,29.50
2019-06-01T17:37:12.097Z,29.60
2019-06-01T17:39:42.123Z,29.60
2019-06-01T17:42:12.721Z,29.60
2019-06-01T17:45:25.393Z,29.60
2019-06-01T17:48:19.195Z,29.50
2019-06-01T17:50:34.603Z,29.40
2019-06-01T17:53:04.803Z,29.30
2019-06-01T17:55:35.404Z,29.10
2019-06-01T17:58:14.250Z,29.00
2019-06-01T18:00:59.095Z,28.80
2019-06-01T18:03:40.873Z,28.60
2019-06-01T18:06:28.831Z,28.40
2019-06-01T18:08:59.882Z,28.10
2019-06-01T18:11:38.979Z,27.90
2019-06-01T18:14:12.386Z,27.80
2019-06-01T18:16:42.542Z,27.70
2019-06-01T18:19:16.716Z,27.70
2019-06-01T18:21:48.135Z,27.50
2019-06-01T18:24:18.318Z,27.30
2019-06-01T18:26:49.851Z,27.20
2019-06-01T18:29:20.249Z,27.10
2019-06-01T18:31:56.836Z,26.90
2019-06-01T18:34:23.002Z,26.80
2019-06-01T18:40:17.386Z,26.60
2019-06-01T18:42:48.869Z,26.40
2019-06-01T18:45:25.603Z,26.20
2019-06-01T18:48:03.707Z,26.20
2019-06-01T18:50:33.981Z,26.00
2019-06-01T18:53:06.097Z,25.90
2019-06-01T18:55:36.878Z,25.70
2019-06-01T18:58:38.222Z,25.60
2019-06-01T19:01:10.675Z,25.50
2019-06-01T19:03:40.904Z,25.40
2019-06-01T19:06:11.651Z,25.40
2019-06-01T19:08:41.751Z,25.30
2019-06-01T19:11:31.665Z,25.20
2019-06-01T19:13:47.447Z,25.10
2019-06-01T19:16:17.370Z,25.10
2019-06-01T19:18:49.088Z,25.00
2019-06-01T19:21:18.784Z,24.90
2019-06-01T19:23:48.586Z,24.80
2019-06-01T19:26:22.067Z,24.70
2019-06-01T19:28:51.981Z,24.60
2019-06-01T19:31:22.217Z,24.50
2019-06-01T19:33:53.061Z,24.50
2019-06-01T19:36:24.282Z,24.40
2019-06-01T19:39:00.331Z,24.40
2019-06-01T19:41:43.771Z,24.30
2019-06-01T19:44:01.648Z,24.30
2019-06-01T19:46:31.356Z,24.20
2019-06-01T19:49:01.188Z,24.10
2019-06-01T19:51:30.931Z,24.10
2019-06-01T19:54:00.867Z,24.00
2019-06-01T19:56:30.783Z,23.90
2019-06-01T19:59:05.547Z,23.90
2019-06-01T20:01:35.430Z,23.80
2019-06-01T20:04:06.103Z,23.80
2019-06-01T20:06:38.130Z,23.80
2019-06-01T20:13:04.811Z,23.60
2019-06-01T20:15:35.602Z,23.60
2019-06-01T20:18:12.677Z,23.50
2019-06-01T20:20:42.546Z,23.40
2019-06-01T20:23:15.251Z,23.30
2019-06-01T20:25:47.162Z,23.30
2019-06-01T20:28:19.583Z,23.20
2019-06-01T20:30:51.021Z,23.10
2019-06-01T20:33:22.564Z,23.00
2019-06-01T20:35:53.529Z,23.00
2019-06-01T20:38:23.574Z,23.00
2019-06-01T20:40:53.392Z,22.90
2019-06-01T20:43:23.990Z,22.90
2019-06-01T20:45:56.787Z,22.80
2019-06-01T20:48:25.132Z,22.80
2019-06-01T20:50:54.747Z,22.70
2019-06-01T20:53:24.573Z,22.70
2019-06-01T20:55:54.146Z,22.70
2019-06-01T20:58:24.908Z,22.60
2019-06-01T21:00:55.002Z,22.60
2019-06-01T21:03:25.901Z,22.50
2019-06-01T21:06:20.887Z,22.50
2019-06-01T21:08:52.092Z,22.50
2019-06-01T21:11:22.336Z,22.40
2019-06-01T21:13:54.190Z,22.40
2019-06-01T21:16:31.970Z,22.30
2019-06-01T21:19:02.642Z,22.30
2019-06-01T21:21:35.973Z,22.30
2019-06-01T21:24:05.507Z,22.20
2019-06-01T21:26:35.240Z,22.20
2019-06-01T21:29:04.913Z,22.20
2019-06-01T21:31:34.494Z,22.10
2019-06-01T21:34:15.070Z,22.10
2019-06-01T21:36:48.319Z,22.10
2019-06-01T21:39:19.629Z,22.00
2019-06-01T21:41:50.576Z,22.00
2019-06-01T21:44:20.225Z,22.00
2019-06-01T21:46:49.853Z,21.90
2019-06-01T21:49:20.572Z,21.90
2019-06-01T21:51:53.052Z,21.90
2019-06-01T21:54:22.603Z,21.80
2019-06-01T21:56:52.248Z,21.80
2019-06-01T21:59:24.922Z,21.70
2019-06-01T22:01:54.634Z,21.60
2019-06-01T22:04:25.678Z,21.60
2019-06-01T22:06:55.472Z,21.60
2019-06-01T22:09:25.353Z,21.50
2019-06-01T22:11:56.097Z,21.50
2019-06-01T22:14:27.755Z,21.50
2019-06-01T22:16:57.521Z,21.40
2019-06-01T22:19:28.237Z,21.40
2019-06-01T22:22:00.170Z,21.40
2019-06-01T22:24:29.886Z,21.30
2019-06-01T22:26:59.579Z,21.30
2019-06-01T22:29:29.204Z,21.20
2019-06-01T22:31:58.826Z,21.20
2019-06-01T22:34:29.345Z,21.10
2019-06-01T22:37:04.506Z,21.10
2019-06-01T22:39:35.314Z,21.10
2019-06-01T22:42:06.819Z,21.00
2019-06-01T22:44:36.591Z,21.10
2019-06-01T22:47:08.447Z,21.10
2019-06-01T22:49:38.306Z,21.10
2019-06-01T22:52:08.023Z,21.10
2019-06-01T22:54:37.662Z,21.00
2019-06-01T22:57:16.107Z,21.00
2019-06-01T22:59:45.958Z,21.00
2019-06-01T23:02:15.901Z,20.90
2019-06-01T23:04:49.193Z,20.90
2019-06-01T23:07:20.910Z,20.90
2019-06-01T23:09:51.473Z,20.80
2019-06-01T23:12:21.377Z,20.70
2019-06-01T23:14:51.278Z,20.70
2019-06-01T23:17:21.558Z,20.70
2019-06-01T23:19:51.456Z,20.70
2019-06-01T23:22:22.211Z,20.70
2019-06-01T23:24:51.217Z,20.60
2019-06-01T23:27:22.074Z,20.50
2019-06-01T23:29:52.143Z,20.50
2019-06-01T23:32:28.649Z,20.50
2019-06-01T23:35:02.208Z,20.40
2019-06-01T23:37:32.973Z,20.40
2019-06-01T23:40:03.487Z,20.30
2019-06-01T23:42:33.689Z,20.30
2019-06-01T23:45:03.976Z,20.20
2019-06-01T23:47:35.177Z,20.20
2019-06-01T23:50:06.471Z,20.20
2019-06-01T23:52:36.931Z,20.10
2019-06-01T23:55:07.274Z,20.10
2019-06-01T23:57:37.647Z,20.10
